sensor_id;sensor_type;location;lat;lon;timestamp;temperature;humidity
11639;DHT22;5875;35.940;126.892;2022-08-21T00:00:46;30.40;99.90
11639;DHT22;5875;35.940;126.892;2022-08-21T00:03:14;30.60;99.90
11639;DHT22;5875;35.940;126.892;2022-08-21T00:05:46;30.60;99.90
11639;DHT22;5875;35.940;126.892;2022-08-21T00:08:13;30.60;99.90
11639;DHT22;5875;35.940;126.892;2022-08-21T00:10:42;30.70;99.90
11639;DHT22;5875;35.940;126.892;2022-08-21T00:13:10;30.80;99.90
11639;DHT22;5875;35.940;126.892;2022-08-21T00:15:40;30.80;99.90
11639;DHT22;5875;35.940;126.892;2022-08-21T00:18:09;30.90;99.90
11639;DHT22;5875;35.940;126.892;2022-08-21T00:20:38;31.10;99.90
11639;DHT22;5875;35.940;126.892;2022-08-21T00:23:06;31.10;99.90
11639;DHT22;5875;35.940;126.892;2022-08-21T00:25:33;31.00;99.90
11639;DHT22;5875;35.940;126.892;2022-08-21T00:28:01;30.90;99.90
11639;DHT22;5875;35.940;126.892;2022-08-21T00:30:28;30.80;99.90
11639;DHT22;5875;35.940;126.892;2022-08-21T00:32:57;30.80;99.90
11639;DHT22;5875;35.940;126.892;2022-08-21T00:35:33;30.90;99.90
11639;DHT22;5875;35.940;126.892;2022-08-21T00:38:01;31.00;99.90
11639;DHT22;5875;35.940;126.892;2022-08-21T00:40:38;31.40;99.90
11639;DHT22;5875;35.940;126.892;2022-08-21T00:43:08;31.60;99.90
11639;DHT22;5875;35.940;126.892;2022-08-21T00:45:35;32.20;99.90
11639;DHT22;5875;35.940;126.892;2022-08-21T00:48:03;32.50;99.90
11639;DHT22;5875;35.940;126.892;2022-08-21T00:50:37;32.70;99.90
11639;DHT22;5875;35.940;126.892;2022-08-21T00:53:06;32.70;99.90
11639;DHT22;5875;35.940;126.892;2022-08-21T00:55:35;32.50;99.90
11639;DHT22;5875;35.940;126.892;2022-08-21T00:58:05;32.60;99.90
11639;DHT22;5875;35.940;126.892;2022-08-21T01:00:35;32.40;99.90
11639;DHT22;5875;35.940;126.892;2022-08-21T01:03:10;32.40;99.90
11639;DHT22;5875;35.940;126.892;2022-08-21T01:05:38;33.20;99.90
11639;DHT22;5875;35.940;126.892;2022-08-21T01:08:07;34.00;99.90
11639;DHT22;5875;35.940;126.892;2022-08-21T01:10:35;34.60;99.90
11639;DHT22;5875;35.940;126.892;2022-08-21T01:13:05;34.60;99.90
11639;DHT22;5875;35.940;126.892;2022-08-21T01:15:37;34.50;99.90
11639;DHT22;5875;35.940;126.892;2022-08-21T01:18:08;34.50;99.90
11639;DHT22;5875;35.940;126.892;2022-08-21T01:20:40;34.70;99.90
11639;DHT22;5875;35.940;126.892;2022-08-21T01:23:07;35.00;99.90
11639;DHT22;5875;35.940;126.892;2022-08-21T01:25:35;35.60;99.90
11639;DHT22;5875;35.940;126.892;2022-08-21T01:28:09;36.10;99.90
11639;DHT22;5875;35.940;126.892;2022-08-21T01:30:40;36.30;99.90
11639;DHT22;5875;35.940;126.892;2022-08-21T01:33:08;35.70;99.90
11639;DHT22;5875;35.940;126.892;2022-08-21T01:35:35;36.10;99.90
11639;DHT22;5875;35.940;126.892;2022-08-21T01:38:03;36.00;99.90
11639;DHT22;5875;35.940;126.892;2022-08-21T01:40:30;36.40;99.90
11639;DHT22;5875;35.940;126.892;2022-08-21T01:42:57;36.80;99.90
11639;DHT22;5875;35.940;126.892;2022-08-21T01:45:24;36.70;99.90
11639;DHT22;5875;35.940;126.892;2022-08-21T01:47:51;36.50;99.90
11639;DHT22;5875;35.940;126.892;2022-08-21T01:50:20;36.10;99.90
11639;DHT22;5875;35.940;126.892;2022-08-21T01:52:48;35.80;99.90
11639;DHT22;5875;35.940;126.892;2022-08-21T01:55:17;36.00;99.90
11639;DHT22;5875;35.940;126.892;2022-08-21T01:57:44;36.40;99.90
11639;DHT22;5875;35.940;126.892;2022-08-21T02:00:14;36.50;99.90
11639;DHT22;5875;35.940;126.892;2022-08-21T02:02:43;37.50;99.90
11639;DHT22;5875;35.940;126.892;2022-08-21T02:05:11;38.30;99.90
11639;DHT22;5875;35.940;126.892;2022-08-21T02:07:49;38.40;99.90
11639;DHT22;5875;35.940;126.892;2022-08-21T02:10:21;38.70;99.90
11639;DHT22;5875;35.940;126.892;2022-08-21T02:12:48;39.20;99.90
11639;DHT22;5875;35.940;126.892;2022-08-21T02:15:16;39.50;99.90
11639;DHT22;5875;35.940;126.892;2022-08-21T02:17:54;39.40;99.90
11639;DHT22;5875;35.940;126.892;2022-08-21T02:20:31;39.10;99.90
11639;DHT22;5875;35.940;126.892;2022-08-21T02:22:58;39.40;99.90
11639;DHT22;5875;35.940;126.892;2022-08-21T02:25:27;38.20;99.90
11639;DHT22;5875;35.940;126.892;2022-08-21T02:27:56;38.00;99.90
11639;DHT22;5875;35.940;126.892;2022-08-21T02:30:36;38.30;99.90
11639;DHT22;5875;35.940;126.892;2022-08-21T02:33:06;38.00;99.90
11639;DHT22;5875;35.940;126.892;2022-08-21T02:35:34;38.10;99.90
11639;DHT22;5875;35.940;126.892;2022-08-21T02:38:04;38.20;99.90
11639;DHT22;5875;35.940;126.892;2022-08-21T02:40:36;38.60;99.90
11639;DHT22;5875;35.940;126.892;2022-08-21T02:43:05;38.90;99.90
11639;DHT22;5875;35.940;126.892;2022-08-21T02:45:33;39.30;99.90
11639;DHT22;5875;35.940;126.892;2022-08-21T02:48:05;39.50;99.90
11639;DHT22;5875;35.940;126.892;2022-08-21T02:50:42;39.70;99.90
11639;DHT22;5875;35.940;126.892;2022-08-21T02:53:12;39.70;99.90
11639;DHT22;5875;35.940;126.892;2022-08-21T02:55:45;39.10;99.90
11639;DHT22;5875;35.940;126.892;2022-08-21T02:58:15;38.40;99.90
11639;DHT22;5875;35.940;126.892;2022-08-21T03:00:42;37.80;99.90
11639;DHT22;5875;35.940;126.892;2022-08-21T03:03:10;37.20;99.90
11639;DHT22;5875;35.940;126.892;2022-08-21T03:05:38;36.90;99.90
11639;DHT22;5875;35.940;126.892;2022-08-21T03:08:08;37.70;99.90
11639;DHT22;5875;35.940;126.892;2022-08-21T03:10:40;38.60;99.90
11639;DHT22;5875;35.940;126.892;2022-08-21T03:13:07;38.80;99.90
11639;DHT22;5875;35.940;126.892;2022-08-21T03:15:35;39.10;99.90
11639;DHT22;5875;35.940;126.892;2022-08-21T03:18:04;39.30;99.90
11639;DHT22;5875;35.940;126.892;2022-08-21T03:20:33;39.10;99.90
11639;DHT22;5875;35.940;126.892;2022-08-21T03:23:02;39.00;99.90
11639;DHT22;5875;35.940;126.892;2022-08-21T03:25:30;38.10;99.90
11639;DHT22;5875;35.940;126.892;2022-08-21T03:27:59;37.80;99.90
11639;DHT22;5875;35.940;126.892;2022-08-21T03:30:27;37.30;99.90
11639;DHT22;5875;35.940;126.892;2022-08-21T03:32:54;37.80;99.90
11639;DHT22;5875;35.940;126.892;2022-08-21T03:35:22;38.40;99.90
11639;DHT22;5875;35.940;126.892;2022-08-21T03:37:49;38.40;99.90
11639;DHT22;5875;35.940;126.892;2022-08-21T03:40:18;38.30;99.90
11639;DHT22;5875;35.940;126.892;2022-08-21T03:42:47;38.50;99.90
11639;DHT22;5875;35.940;126.892;2022-08-21T03:45:18;38.70;99.90
11639;DHT22;5875;35.940;126.892;2022-08-21T03:47:58;38.80;99.90
11639;DHT22;5875;35.940;126.892;2022-08-21T03:50:32;39.00;99.90
11639;DHT22;5875;35.940;126.892;2022-08-21T03:52:59;39.10;99.90
11639;DHT22;5875;35.940;126.892;2022-08-21T03:55:27;39.20;99.90
11639;DHT22;5875;35.940;126.892;2022-08-21T03:57:54;39.10;99.90
11639;DHT22;5875;35.940;126.892;2022-08-21T04:00:22;39.10;99.90
11639;DHT22;5875;35.940;126.892;2022-08-21T04:02:50;38.80;99.90
11639;DHT22;5875;35.940;126.892;2022-08-21T04:05:19;38.80;99.90
11639;DHT22;5875;35.940;126.892;2022-08-21T04:08:02;38.90;99.90
11639;DHT22;5875;35.940;126.892;2022-08-21T04:10:32;39.00;99.90
11639;DHT22;5875;35.940;126.892;2022-08-21T04:13:01;38.60;99.90
11639;DHT22;5875;35.940;126.892;2022-08-21T04:15:28;39.30;99.90
11639;DHT22;5875;35.940;126.892;2022-08-21T04:17:55;39.50;99.90
11639;DHT22;5875;35.940;126.892;2022-08-21T04:20:23;39.70;99.90
11639;DHT22;5875;35.940;126.892;2022-08-21T04:22:51;39.50;99.90
11639;DHT22;5875;35.940;126.892;2022-08-21T04:25:20;38.30;99.90
11639;DHT22;5875;35.940;126.892;2022-08-21T04:27:49;38.80;99.90
11639;DHT22;5875;35.940;126.892;2022-08-21T04:30:18;39.00;99.90
11639;DHT22;5875;35.940;126.892;2022-08-21T04:32:46;39.10;99.90
11639;DHT22;5875;35.940;126.892;2022-08-21T04:35:16;39.40;99.90
11639;DHT22;5875;35.940;126.892;2022-08-21T04:37:43;39.40;99.90
11639;DHT22;5875;35.940;126.892;2022-08-21T04:40:13;39.40;99.90
11639;DHT22;5875;35.940;126.892;2022-08-21T04:42:47;39.40;99.90
11639;DHT22;5875;35.940;126.892;2022-08-21T04:45:25;39.60;99.90
11639;DHT22;5875;35.940;126.892;2022-08-21T04:47:54;39.60;99.90
11639;DHT22;5875;35.940;126.892;2022-08-21T04:50:25;39.40;99.90
11639;DHT22;5875;35.940;126.892;2022-08-21T04:52:55;38.90;99.90
11639;DHT22;5875;35.940;126.892;2022-08-21T04:55:23;39.20;99.90
11639;DHT22;5875;35.940;126.892;2022-08-21T04:57:51;39.00;99.90
11639;DHT22;5875;35.940;126.892;2022-08-21T05:00:21;39.00;99.90
11639;DHT22;5875;35.940;126.892;2022-08-21T05:02:52;38.70;99.90
11639;DHT22;5875;35.940;126.892;2022-08-21T05:05:23;38.40;99.90
11639;DHT22;5875;35.940;126.892;2022-08-21T05:07:51;37.90;99.90
11639;DHT22;5875;35.940;126.892;2022-08-21T05:10:18;38.00;99.90
11639;DHT22;5875;35.940;126.892;2022-08-21T05:12:46;38.50;99.90
11639;DHT22;5875;35.940;126.892;2022-08-21T05:15:13;38.60;99.90
11639;DHT22;5875;35.940;126.892;2022-08-21T05:17:41;38.70;99.90
11639;DHT22;5875;35.940;126.892;2022-08-21T05:20:13;38.30;99.90
11639;DHT22;5875;35.940;126.892;2022-08-21T05:22:40;38.10;99.90
11639;DHT22;5875;35.940;126.892;2022-08-21T05:25:09;38.40;99.90
11639;DHT22;5875;35.940;126.892;2022-08-21T05:27:37;38.40;99.90
11639;DHT22;5875;35.940;126.892;2022-08-21T05:30:06;38.50;99.90
11639;DHT22;5875;35.940;126.892;2022-08-21T05:32:34;38.50;99.90
11639;DHT22;5875;35.940;126.892;2022-08-21T05:35:02;38.40;99.90
11639;DHT22;5875;35.940;126.892;2022-08-21T05:37:30;38.40;99.90
11639;DHT22;5875;35.940;126.892;2022-08-21T05:39:58;38.40;99.90
11639;DHT22;5875;35.940;126.892;2022-08-21T05:42:26;38.30;99.90
11639;DHT22;5875;35.940;126.892;2022-08-21T05:44:54;38.10;99.90
11639;DHT22;5875;35.940;126.892;2022-08-21T05:47:21;38.00;99.90
11639;DHT22;5875;35.940;126.892;2022-08-21T05:49:48;38.00;99.90
11639;DHT22;5875;35.940;126.892;2022-08-21T05:52:19;38.00;99.90
11639;DHT22;5875;35.940;126.892;2022-08-21T05:54:47;37.80;99.90
11639;DHT22;5875;35.940;126.892;2022-08-21T05:57:15;37.40;99.90
11639;DHT22;5875;35.940;126.892;2022-08-21T05:59:42;37.20;99.90
11639;DHT22;5875;35.940;126.892;2022-08-21T06:02:09;36.90;99.90
11639;DHT22;5875;35.940;126.892;2022-08-21T06:04:38;36.50;99.90
11639;DHT22;5875;35.940;126.892;2022-08-21T06:07:06;36.20;99.90
11639;DHT22;5875;35.940;126.892;2022-08-21T06:09:34;36.00;99.90
11639;DHT22;5875;35.940;126.892;2022-08-21T06:12:09;35.80;99.90
11639;DHT22;5875;35.940;126.892;2022-08-21T06:14:39;35.60;99.90
11639;DHT22;5875;35.940;126.892;2022-08-21T06:17:08;35.50;99.90
11639;DHT22;5875;35.940;126.892;2022-08-21T06:19:35;35.30;99.90
11639;DHT22;5875;35.940;126.892;2022-08-21T06:22:03;35.20;99.90
11639;DHT22;5875;35.940;126.892;2022-08-21T06:24:30;35.10;99.90
11639;DHT22;5875;35.940;126.892;2022-08-21T06:27:03;34.90;99.90
11639;DHT22;5875;35.940;126.892;2022-08-21T06:29:30;34.80;99.90
11639;DHT22;5875;35.940;126.892;2022-08-21T06:31:57;34.70;99.90
11639;DHT22;5875;35.940;126.892;2022-08-21T06:34:24;34.80;99.90
11639;DHT22;5875;35.940;126.892;2022-08-21T06:36:51;34.90;99.90
11639;DHT22;5875;35.940;126.892;2022-08-21T06:39:18;35.10;99.90
11639;DHT22;5875;35.940;126.892;2022-08-21T06:41:45;35.20;99.90
11639;DHT22;5875;35.940;126.892;2022-08-21T06:44:16;35.20;99.90
11639;DHT22;5875;35.940;126.892;2022-08-21T06:46:44;35.20;99.90
11639;DHT22;5875;35.940;126.892;2022-08-21T06:49:11;35.20;99.90
11639;DHT22;5875;35.940;126.892;2022-08-21T06:51:39;35.10;99.90
11639;DHT22;5875;35.940;126.892;2022-08-21T06:54:06;35.10;99.90
11639;DHT22;5875;35.940;126.892;2022-08-21T06:56:35;35.10;99.90
11639;DHT22;5875;35.940;126.892;2022-08-21T06:59:04;35.10;99.90
11639;DHT22;5875;35.940;126.892;2022-08-21T07:01:32;34.90;99.90
11639;DHT22;5875;35.940;126.892;2022-08-21T07:03:59;34.90;99.90
11639;DHT22;5875;35.940;126.892;2022-08-21T07:06:26;34.80;99.90
11639;DHT22;5875;35.940;126.892;2022-08-21T07:08:53;34.80;99.90
11639;DHT22;5875;35.940;126.892;2022-08-21T07:11:22;34.80;99.90
11639;DHT22;5875;35.940;126.892;2022-08-21T07:13:50;34.80;99.90
11639;DHT22;5875;35.940;126.892;2022-08-21T07:16:23;34.70;99.90
11639;DHT22;5875;35.940;126.892;2022-08-21T07:18:50;34.50;99.90
11639;DHT22;5875;35.940;126.892;2022-08-21T07:21:18;34.30;99.90
11639;DHT22;5875;35.940;126.892;2022-08-21T07:23:48;34.20;99.90
11639;DHT22;5875;35.940;126.892;2022-08-21T07:26:18;34.20;99.90
11639;DHT22;5875;35.940;126.892;2022-08-21T07:28:48;34.10;99.90
11639;DHT22;5875;35.940;126.892;2022-08-21T07:31:17;34.10;99.90
11639;DHT22;5875;35.940;126.892;2022-08-21T07:33:45;34.00;99.90
11639;DHT22;5875;35.940;126.892;2022-08-21T07:36:13;34.00;99.90
11639;DHT22;5875;35.940;126.892;2022-08-21T07:38:40;33.90;99.90
11639;DHT22;5875;35.940;126.892;2022-08-21T07:41:17;33.90;99.90
11639;DHT22;5875;35.940;126.892;2022-08-21T07:43:45;33.80;99.90
11639;DHT22;5875;35.940;126.892;2022-08-21T07:46:13;33.80;99.90
11639;DHT22;5875;35.940;126.892;2022-08-21T07:48:40;33.80;99.90
11639;DHT22;5875;35.940;126.892;2022-08-21T07:51:10;33.70;99.90
11639;DHT22;5875;35.940;126.892;2022-08-21T07:53:38;33.60;99.90
11639;DHT22;5875;35.940;126.892;2022-08-21T07:56:07;33.60;99.90
11639;DHT22;5875;35.940;126.892;2022-08-21T07:58:34;33.60;99.90
11639;DHT22;5875;35.940;126.892;2022-08-21T08:01:02;33.60;99.90
11639;DHT22;5875;35.940;126.892;2022-08-21T08:03:29;33.50;99.90
11639;DHT22;5875;35.940;126.892;2022-08-21T08:05:56;33.30;99.90
11639;DHT22;5875;35.940;126.892;2022-08-21T08:08:24;33.30;99.90
11639;DHT22;5875;35.940;126.892;2022-08-21T08:10:53;33.20;99.90
11639;DHT22;5875;35.940;126.892;2022-08-21T08:13:23;33.10;99.90
11639;DHT22;5875;35.940;126.892;2022-08-21T08:15:51;33.10;99.90
11639;DHT22;5875;35.940;126.892;2022-08-21T08:18:18;33.00;99.90
11639;DHT22;5875;35.940;126.892;2022-08-21T08:20:45;32.90;99.90
11639;DHT22;5875;35.940;126.892;2022-08-21T08:23:13;32.90;99.90
11639;DHT22;5875;35.940;126.892;2022-08-21T08:25:41;32.80;99.90
11639;DHT22;5875;35.940;126.892;2022-08-21T08:28:08;32.60;99.90
11639;DHT22;5875;35.940;126.892;2022-08-21T08:30:35;32.50;99.90
11639;DHT22;5875;35.940;126.892;2022-08-21T08:33:02;32.40;99.90
11639;DHT22;5875;35.940;126.892;2022-08-21T08:35:29;32.30;99.90
11639;DHT22;5875;35.940;126.892;2022-08-21T08:37:57;32.20;99.90
11639;DHT22;5875;35.940;126.892;2022-08-21T08:40:56;32.10;99.90
11639;DHT22;5875;35.940;126.892;2022-08-21T08:43:32;32.10;99.90
11639;DHT22;5875;35.940;126.892;2022-08-21T08:46:04;32.10;99.90
11639;DHT22;5875;35.940;126.892;2022-08-21T08:51:01;32.00;99.90
11639;DHT22;5875;35.940;126.892;2022-08-21T08:53:35;32.00;99.90
11639;DHT22;5875;35.940;126.892;2022-08-21T08:56:05;31.90;99.90
11639;DHT22;5875;35.940;126.892;2022-08-21T08:58:37;31.90;99.90
11639;DHT22;5875;35.940;126.892;2022-08-21T09:01:13;31.90;99.90
11639;DHT22;5875;35.940;126.892;2022-08-21T09:03:42;31.80;99.90
11639;DHT22;5875;35.940;126.892;2022-08-21T09:06:43;31.70;99.90
11639;DHT22;5875;35.940;126.892;2022-08-21T09:12:08;31.70;99.90
11639;DHT22;5875;35.940;126.892;2022-08-21T09:17:32;31.50;99.90
11639;DHT22;5875;35.940;126.892;2022-08-21T09:28:32;31.30;99.90
11639;DHT22;5875;35.940;126.892;2022-08-21T09:30:59;31.20;99.90
11639;DHT22;5875;35.940;126.892;2022-08-21T09:33:29;31.10;99.90
11639;DHT22;5875;35.940;126.892;2022-08-21T09:35:56;31.00;99.90
11639;DHT22;5875;35.940;126.892;2022-08-21T09:38:32;31.00;99.90
11639;DHT22;5875;35.940;126.892;2022-08-21T09:41:03;30.90;99.90
11639;DHT22;5875;35.940;126.892;2022-08-21T09:43:32;30.80;99.90
11639;DHT22;5875;35.940;126.892;2022-08-21T09:48:48;30.60;99.90
11639;DHT22;5875;35.940;126.892;2022-08-21T09:51:19;30.60;99.90
11639;DHT22;5875;35.940;126.892;2022-08-21T09:54:14;30.50;99.90
11639;DHT22;5875;35.940;126.892;2022-08-21T09:59:40;30.30;99.90
11639;DHT22;5875;35.940;126.892;2022-08-21T10:04:59;30.20;99.90
11639;DHT22;5875;35.940;126.892;2022-08-21T10:07:29;30.10;99.90
11639;DHT22;5875;35.940;126.892;2022-08-21T10:10:01;30.00;99.90
11639;DHT22;5875;35.940;126.892;2022-08-21T10:17:53;29.90;99.90
11639;DHT22;5875;35.940;126.892;2022-08-21T10:20:34;29.90;99.90
11639;DHT22;5875;35.940;126.892;2022-08-21T10:23:29;29.80;99.90
11639;DHT22;5875;35.940;126.892;2022-08-21T10:26:39;29.60;99.90
11639;DHT22;5875;35.940;126.892;2022-08-21T10:29:23;29.50;99.90
11639;DHT22;5875;35.940;126.892;2022-08-21T10:32:06;29.40;99.90
11639;DHT22;5875;35.940;126.892;2022-08-21T10:35:22;29.40;99.90
11639;DHT22;5875;35.940;126.892;2022-08-21T10:40:42;29.20;99.90
11639;DHT22;5875;35.940;126.892;2022-08-21T10:48:59;29.00;99.90
11639;DHT22;5875;35.940;126.892;2022-08-21T10:52:09;28.90;99.90
11639;DHT22;5875;35.940;126.892;2022-08-21T10:57:02;28.90;99.90
11639;DHT22;5875;35.940;126.892;2022-08-21T10:59:45;28.90;99.90
11639;DHT22;5875;35.940;126.892;2022-08-21T11:02:19;28.90;99.90
11639;DHT22;5875;35.940;126.892;2022-08-21T11:04:59;28.90;99.90
11639;DHT22;5875;35.940;126.892;2022-08-21T11:10:05;28.80;99.90
11639;DHT22;5875;35.940;126.892;2022-08-21T11:13:00;28.80;99.90
11639;DHT22;5875;35.940;126.892;2022-08-21T11:18:41;28.80;99.90
11639;DHT22;5875;35.940;126.892;2022-08-21T11:26:41;28.40;99.90
11639;DHT22;5875;35.940;126.892;2022-08-21T11:29:36;28.10;99.90
11639;DHT22;5875;35.940;126.892;2022-08-21T11:35:21;27.80;99.90
11639;DHT22;5875;35.940;126.892;2022-08-21T11:43:40;28.20;99.90
11639;DHT22;5875;35.940;126.892;2022-08-21T12:00:59;28.20;99.90
11639;DHT22;5875;35.940;126.892;2022-08-21T12:03:31;27.80;99.90
11639;DHT22;5875;35.940;126.892;2022-08-21T12:06:07;27.70;99.90
11639;DHT22;5875;35.940;126.892;2022-08-21T12:08:37;28.00;99.90
11639;DHT22;5875;35.940;126.892;2022-08-21T12:16:38;27.80;99.90
11639;DHT22;5875;35.940;126.892;2022-08-21T12:19:12;27.70;99.90
11639;DHT22;5875;35.940;126.892;2022-08-21T12:21:52;27.60;99.90
11639;DHT22;5875;35.940;126.892;2022-08-21T12:27:17;27.10;99.90
11639;DHT22;5875;35.940;126.892;2022-08-21T12:29:49;27.00;99.90
11639;DHT22;5875;35.940;126.892;2022-08-21T12:35:19;26.80;99.90
11639;DHT22;5875;35.940;126.892;2022-08-21T12:38:07;26.90;99.90
11639;DHT22;5875;35.940;126.892;2022-08-21T12:43:48;27.40;99.90
11639;DHT22;5875;35.940;126.892;2022-08-21T12:47:06;27.50;99.90
11639;DHT22;5875;35.940;126.892;2022-08-21T12:49:26;27.60;99.90
11639;DHT22;5875;35.940;126.892;2022-08-21T12:52:02;27.60;99.90
11639;DHT22;5875;35.940;126.892;2022-08-21T12:54:39;27.60;99.90
11639;DHT22;5875;35.940;126.892;2022-08-21T12:57:16;27.70;99.90
11639;DHT22;5875;35.940;126.892;2022-08-21T12:59:44;27.70;99.90
11639;DHT22;5875;35.940;126.892;2022-08-21T13:02:19;27.70;99.90
11639;DHT22;5875;35.940;126.892;2022-08-21T13:04:49;27.80;99.90
11639;DHT22;5875;35.940;126.892;2022-08-21T13:07:42;27.70;99.90
11639;DHT22;5875;35.940;126.892;2022-08-21T13:10:42;27.70;99.90
11639;DHT22;5875;35.940;126.892;2022-08-21T13:13:21;27.20;99.90
11639;DHT22;5875;35.940;126.892;2022-08-21T13:15:49;27.30;99.90
11639;DHT22;5875;35.940;126.892;2022-08-21T13:18:25;27.30;99.90
11639;DHT22;5875;35.940;126.892;2022-08-21T13:21:04;27.50;99.90
11639;DHT22;5875;35.940;126.892;2022-08-21T13:23:32;27.50;99.90
11639;DHT22;5875;35.940;126.892;2022-08-21T13:25:59;27.60;99.90
11639;DHT22;5875;35.940;126.892;2022-08-21T13:28:35;27.40;99.90
11639;DHT22;5875;35.940;126.892;2022-08-21T13:31:08;27.10;99.90
11639;DHT22;5875;35.940;126.892;2022-08-21T13:33:40;26.90;99.90
11639;DHT22;5875;35.940;126.892;2022-08-21T13:36:32;27.00;99.90
11639;DHT22;5875;35.940;126.892;2022-08-21T13:39:04;27.10;99.90
11639;DHT22;5875;35.940;126.892;2022-08-21T13:41:34;27.30;99.90
11639;DHT22;5875;35.940;126.892;2022-08-21T13:44:35;27.40;99.90
11639;DHT22;5875;35.940;126.892;2022-08-21T13:47:04;27.40;99.90
11639;DHT22;5875;35.940;126.892;2022-08-21T13:49:37;27.50;99.90
11639;DHT22;5875;35.940;126.892;2022-08-21T13:52:15;27.50;99.90
11639;DHT22;5875;35.940;126.892;2022-08-21T13:54:43;27.40;99.90
11639;DHT22;5875;35.940;126.892;2022-08-21T13:57:34;27.30;99.90
11639;DHT22;5875;35.940;126.892;2022-08-21T14:00:18;27.40;99.90
11639;DHT22;5875;35.940;126.892;2022-08-21T14:02:49;27.20;99.90
11639;DHT22;5875;35.940;126.892;2022-08-21T14:05:32;27.00;99.90
11639;DHT22;5875;35.940;126.892;2022-08-21T14:08:07;26.90;99.90
11639;DHT22;5875;35.940;126.892;2022-08-21T14:10:41;26.70;99.90
11639;DHT22;5875;35.940;126.892;2022-08-21T14:13:14;26.70;99.90
11639;DHT22;5875;35.940;126.892;2022-08-21T14:15:42;26.60;99.90
11639;DHT22;5875;35.940;126.892;2022-08-21T14:18:19;26.50;99.90
11639;DHT22;5875;35.940;126.892;2022-08-21T14:20:46;26.60;99.90
11639;DHT22;5875;35.940;126.892;2022-08-21T14:23:25;26.70;99.90
11639;DHT22;5875;35.940;126.892;2022-08-21T14:25:52;26.60;99.90
11639;DHT22;5875;35.940;126.892;2022-08-21T14:28:40;26.60;99.90
11639;DHT22;5875;35.940;126.892;2022-08-21T14:31:30;26.60;99.90
11639;DHT22;5875;35.940;126.892;2022-08-21T14:34:00;26.40;99.90
11639;DHT22;5875;35.940;126.892;2022-08-21T14:36:27;26.40;99.90
11639;DHT22;5875;35.940;126.892;2022-08-21T14:38:55;26.50;99.90
11639;DHT22;5875;35.940;126.892;2022-08-21T14:41:25;26.60;99.90
11639;DHT22;5875;35.940;126.892;2022-08-21T14:43:54;26.60;99.90
11639;DHT22;5875;35.940;126.892;2022-08-21T14:46:27;26.60;99.90
11639;DHT22;5875;35.940;126.892;2022-08-21T14:48:55;26.50;99.90
11639;DHT22;5875;35.940;126.892;2022-08-21T14:51:23;26.50;99.90
11639;DHT22;5875;35.940;126.892;2022-08-21T14:53:50;26.50;99.90
11639;DHT22;5875;35.940;126.892;2022-08-21T14:56:17;26.50;99.90
11639;DHT22;5875;35.940;126.892;2022-08-21T14:58:46;26.50;99.90
11639;DHT22;5875;35.940;126.892;2022-08-21T15:01:16;26.50;99.90
11639;DHT22;5875;35.940;126.892;2022-08-21T15:03:45;26.70;99.90
11639;DHT22;5875;35.940;126.892;2022-08-21T15:06:14;26.80;99.90
11639;DHT22;5875;35.940;126.892;2022-08-21T15:08:41;27.00;99.90
11639;DHT22;5875;35.940;126.892;2022-08-21T15:11:11;27.00;99.90
11639;DHT22;5875;35.940;126.892;2022-08-21T15:13:39;27.00;99.90
11639;DHT22;5875;35.940;126.892;2022-08-21T15:16:09;27.00;99.90
11639;DHT22;5875;35.940;126.892;2022-08-21T15:18:37;27.10;99.90
11639;DHT22;5875;35.940;126.892;2022-08-21T15:21:05;26.90;99.90
11639;DHT22;5875;35.940;126.892;2022-08-21T15:23:32;27.00;99.90
11639;DHT22;5875;35.940;126.892;2022-08-21T15:25:59;27.00;99.90
11639;DHT22;5875;35.940;126.892;2022-08-21T15:28:26;26.90;99.90
11639;DHT22;5875;35.940;126.892;2022-08-21T15:30:54;26.70;99.90
11639;DHT22;5875;35.940;126.892;2022-08-21T15:33:21;26.70;99.90
11639;DHT22;5875;35.940;126.892;2022-08-21T15:35:48;26.70;99.90
11639;DHT22;5875;35.940;126.892;2022-08-21T15:38:15;26.70;99.90
11639;DHT22;5875;35.940;126.892;2022-08-21T15:40:43;26.60;99.90
11639;DHT22;5875;35.940;126.892;2022-08-21T15:43:27;26.60;99.90
11639;DHT22;5875;35.940;126.892;2022-08-21T15:45:54;26.60;99.90
11639;DHT22;5875;35.940;126.892;2022-08-21T15:48:22;26.60;99.90
11639;DHT22;5875;35.940;126.892;2022-08-21T15:50:49;26.70;99.90
11639;DHT22;5875;35.940;126.892;2022-08-21T15:53:16;26.80;99.90
11639;DHT22;5875;35.940;126.892;2022-08-21T15:55:43;26.90;99.90
11639;DHT22;5875;35.940;126.892;2022-08-21T15:58:15;26.90;99.90
11639;DHT22;5875;35.940;126.892;2022-08-21T16:00:43;27.00;99.90
11639;DHT22;5875;35.940;126.892;2022-08-21T16:03:15;27.10;99.90
11639;DHT22;5875;35.940;126.892;2022-08-21T16:05:44;27.10;99.90
11639;DHT22;5875;35.940;126.892;2022-08-21T16:08:14;27.20;99.90
11639;DHT22;5875;35.940;126.892;2022-08-21T16:10:42;27.20;99.90
11639;DHT22;5875;35.940;126.892;2022-08-21T16:13:20;27.30;99.90
11639;DHT22;5875;35.940;126.892;2022-08-21T16:15:50;27.20;99.90
11639;DHT22;5875;35.940;126.892;2022-08-21T16:18:18;27.20;99.90
11639;DHT22;5875;35.940;126.892;2022-08-21T16:20:46;27.20;99.90
11639;DHT22;5875;35.940;126.892;2022-08-21T16:23:13;27.20;99.90
11639;DHT22;5875;35.940;126.892;2022-08-21T16:25:42;27.30;99.90
11639;DHT22;5875;35.940;126.892;2022-08-21T16:28:13;27.30;99.90
11639;DHT22;5875;35.940;126.892;2022-08-21T16:30:44;27.30;99.90
11639;DHT22;5875;35.940;126.892;2022-08-21T16:35:50;27.40;99.90
11639;DHT22;5875;35.940;126.892;2022-08-21T16:38:18;27.40;99.90
11639;DHT22;5875;35.940;126.892;2022-08-21T16:40:45;27.40;99.90
11639;DHT22;5875;35.940;126.892;2022-08-21T16:43:12;27.40;99.90
11639;DHT22;5875;35.940;126.892;2022-08-21T16:45:41;27.30;99.90
11639;DHT22;5875;35.940;126.892;2022-08-21T16:48:09;27.30;99.90
11639;DHT22;5875;35.940;126.892;2022-08-21T16:50:37;27.30;99.90
11639;DHT22;5875;35.940;126.892;2022-08-21T16:53:04;27.30;99.90
11639;DHT22;5875;35.940;126.892;2022-08-21T16:55:34;27.20;99.90
11639;DHT22;5875;35.940;126.892;2022-08-21T16:58:11;27.20;99.90
11639;DHT22;5875;35.940;126.892;2022-08-21T17:00:39;27.20;99.90
11639;DHT22;5875;35.940;126.892;2022-08-21T17:03:06;27.20;99.90
11639;DHT22;5875;35.940;126.892;2022-08-21T17:05:39;27.10;99.90
11639;DHT22;5875;35.940;126.892;2022-08-21T17:08:06;27.10;99.90
11639;DHT22;5875;35.940;126.892;2022-08-21T17:10:34;27.10;99.90
11639;DHT22;5875;35.940;126.892;2022-08-21T17:13:02;27.10;99.90